Latest Coastal Weather Observations for Strahan

IDT60701

Issued at 2:15 am EST Friday 25 April 2014 (issued every 10 minutes, with the page automatically refreshed every 10 minutes)

About coastal observations | Map of coastal stations | Coastal observations for TAS | Marine services | Other Formats
Station Details ID: 097072 Name: STRAHAN AERODROME Lat: -42.16 Lon: 145.29 Height: 21.0 m
Data from the previous 72 hours. | See also: Recent months at Strahan
Date/Time
EST
Temp

°C
Wind Pressure Rain
since 9am
mm
Weather Cloud Vis
km
Sea
Height
m
Swell
Dir
 
Speed
knots
Gust
knots
hPa Trend Height
m
Period
s
Dir
25/02:00am 6.9 NE 8 11 1019.0 - 2.2 - Partly cloudy 10 - - - -
25/01:30am 7.0 NNE 9 13 1019.2 - 1.8 - Partly cloudy 7 - - - -
25/01:00am 6.9 NNE 7 11 1019.1 - 1.6 - Partly cloudy 10 - - - -
25/12:30am 6.8 NE 7 10 1019.2 - 1.6 - Partly cloudy 10 - - - -
25/12:14am 6.8 NE 6 8 1019.2 - 1.6 - Partly cloudy 10 - - - -
25/12:00am 7.0 NNE 6 12 1019.1 - 1.6 - Cloudy 5 - - - -
 
Date/Time
EST
Temp

°C
Wind Pressure Rain
since 9am
mm
Weather Cloud Vis
km
Sea
Height
m
Swell
Dir
 
Speed
knots
Gust
knots
hPa Trend Height
m
Period
s
Dir
24/11:59pm 7.4 NNE 6 12 1019.2 - 1.6 - Partly cloudy 5 - - - -
24/11:30pm 6.7 N 7 10 1019.3 - 1.2 - Partly cloudy 9 - - - -
24/11:00pm 6.8 NNE 5 7 1019.2 - 1.2 - Partly cloudy 10 - - - -
24/10:30pm 7.1 NNE 6 9 1019.1 - 1.2 - Partly cloudy 10 - - - -
24/10:00pm 9.7 WNW 7 13 1019.0 - 1.2 - Partly cloudy 10 - - - -
24/09:30pm 9.2 WNW 6 9 1018.8 - 1.2 - Partly cloudy 10 - - - -
24/09:00pm 9.6 W 7 10 1018.4 - 1.2 - Cloudy 10 - - - -
24/08:30pm 8.7 W 8 10 1018.2 - 1.2 - Partly cloudy 10 - - - -
24/08:00pm 8.4 W 7 10 1017.8 - 1.2 - - 10 - - - -
24/07:30pm 8.9 W 7 10 1017.5 - 1.2 - Partly cloudy 10 - - - -
24/07:00pm 7.8 SW 5 8 1017.4 - 1.2 - Partly cloudy 10 - - - -
24/06:30pm 7.7 WSW 4 8 1017.1 - 1.2 - Partly cloudy 10 - - - -
24/06:00pm 7.7 WSW 4 6 1016.7 - 1.2 - Partly cloudy 10 - - - -
24/05:30pm 9.4 WSW 16 22 1016.3 - 1.2 - Partly cloudy 10 - - - -
24/05:00pm 9.7 WSW 8 14 1015.9 - 1.2 - Partly cloudy 10 - - - -
24/04:30pm 9.7 SSW 10 15 1015.6 - 1.2 - Partly cloudy 10 - - - -
24/04:00pm 11.0 W 13 18 1015.2 - 1.2 - Partly cloudy 10 - - - -
24/03:30pm 11.9 WSW 12 18 1014.8 - 1.2 - Partly cloudy 10 - - - -
24/03:00pm 9.7 W 14 22 1014.5 - 1.2 - Cloudy 10 - - - -
24/02:30pm 11.7 WSW 14 19 1014.0 - 1.2 - Partly cloudy 10 - - - -
24/02:00pm 11.9 WSW 16 22 1013.6 - 1.2 - Partly cloudy 10 - - - -
24/01:30pm 10.7 WSW 17 23 1013.1 - 1.2 - Partly cloudy 10 - - - -
24/01:00pm 10.5 WSW 16 22 1012.8 - 1.2 - Partly cloudy 10 - - - -
24/12:30pm 12.1 WSW 17 23 1012.3 - 1.2 - Partly cloudy 10 - - - -
24/12:00pm 11.6 WSW 20 27 1011.7 - 1.2 - Partly cloudy 10 - - - -
24/11:30am 10.9 SW 18 25 1011.3 - 1.2 - Partly cloudy 10 - - - -
24/11:00am 10.1 SW 19 29 1010.6 - 1.2 - Partly cloudy 10 - - - -
24/10:51am 10.9 WSW 18 29 1010.4 - 1.2 - Partly cloudy 10 - - - -
24/10:30am 10.7 WSW 16 24 1009.9 - 0.8 - Partly cloudy 10 - - - -
24/10:00am 10.4 WSW 17 24 1009.4 - 0.8 - Partly cloudy 10 - - - -
24/09:30am 9.0 WSW 19 30 1008.8 - 0.8 - Partly cloudy 10 - - - -
24/09:06am 7.4 WSW 17 27 1008.5 - 0.4 - Partly cloudy 3 - - - -
24/09:00am 7.7 WSW 19 27 1008.6 - 23.2 - Cloudy 5 - - - -
24/08:59am 7.7 WSW 19 27 1008.5 - 23.2 - Partly cloudy 5 - - - -
24/08:54am 8.3 SW 20 30 1008.3 - 23.0 - Partly cloudy 10 - - - -
24/08:49am 8.4 SW 21 30 1008.2 - 23.0 - Partly cloudy 10 - - - -
24/08:31am 7.2 W 18 29 1007.5 - 22.8 - Partly cloudy 5 - - - -
24/08:30am 7.9 W 17 29 1007.6 - 22.4 - Partly cloudy 7 - - - -
24/08:29am 8.5 W 15 27 1007.7 - 22.2 - Partly cloudy 9 - - - -
24/08:00am 8.0 SSW 8 11 1006.8 - 22.0 - - 10 - - - -
24/07:30am 8.8 WSW 22 33 1006.1 - 22.0 - Partly cloudy 10 - - - -
24/07:05am 9.6 W 15 25 1005.3 - 22.0 - Partly cloudy 10 - - - -
24/07:00am 9.5 WSW 13 18 1005.2 - 22.0 - Partly cloudy 10 - - - -
24/06:30am 8.8 W 14 22 1004.8 - 22.0 - Partly cloudy 9 - - - -
24/06:06am 9.6 W 18 28 1004.3 - 21.4 - Partly cloudy 10 - - - -
24/06:00am 9.8 W 17 25 1004.2 - 21.4 - Cloudy 9 - - - -
24/05:47am 10.0 WSW 18 24 1003.9 - 21.2 - Partly cloudy 9 - - - -
24/05:33am 9.8 WSW 18 33 1003.6 - 21.2 - Partly cloudy 5 - - - -
24/05:30am 10.3 WSW 17 33 1003.5 - 21.0 - Partly cloudy 7 - - - -
24/05:00am 10.7 WSW 19 29 1003.2 - 21.0 - Partly cloudy 8 - - - -
24/04:57am 10.9 WSW 17 29 1003.2 - 21.0 - Partly cloudy 8 - - - -
24/04:47am 11.2 W 16 22 1002.8 - 21.0 - Partly cloudy 10 - - - -
24/04:36am 10.9 W 16 26 1002.3 - 21.0 - Partly cloudy 5 - - - -
24/04:30am 10.7 W 17 26 1002.1 - 20.8 - Partly cloudy 5 - - - -
24/04:21am 11.2 NW 15 25 1002.2 - 20.0 - Partly cloudy 5 - - - -
24/04:17am 10.9 NNW 12 18 1002.3 - 20.0 - Partly cloudy 5 - - - -
24/04:00am 10.4 NW 10 15 1002.2 - 19.2 - Partly cloudy 10 - - - -
24/03:52am 10.2 NW 9 21 1002.0 - 19.2 - Partly cloudy 9 - - - -
24/03:30am 10.0 WNW 20 31 1002.9 - 18.4 - Partly cloudy 3 - - - -
24/03:24am 10.3 WNW 17 31 1002.9 - 18.0 - Partly cloudy 3 - - - -
24/03:17am 10.7 WNW 15 22 1002.5 - 16.6 - Partly cloudy 5 - - - -
24/03:15am 10.6 WNW 15 22 1002.6 - 16.2 - Partly cloudy 6 - - - -
24/03:03am 10.8 WNW 17 27 1002.7 - 15.2 - Partly cloudy 5 - - - -
24/03:00am 10.7 W 17 27 1002.5 - 15.0 - Cloudy 5 - - - -
24/02:54am 11.0 W 16 27 1002.5 - 14.4 - Partly cloudy 5 - - - -
24/02:30am 10.6 WNW 15 21 1002.0 - 11.8 - Partly cloudy 2 - - - -
24/02:27am 10.6 WNW 15 24 1002.0 - 11.4 - Partly cloudy 1 - - - -
24/02:21am 10.3 WNW 15 28 1002.1 - 9.8 - Partly cloudy 2 - - - -
24/02:14am 11.2 W 20 28 1001.6 - 6.0 - Partly cloudy 4 - - - -
24/02:06am 12.6 N 16 29 1000.2 - 5.2 - Partly cloudy 5 - - - -
24/02:00am 12.8 N 15 29 1000.2 - 4.4 - Partly cloudy 10 - - - -
24/01:32am 12.6 N 17 27 1000.9 - 4.4 - Partly cloudy 6 - - - -
24/01:30am 12.6 N 17 25 1000.7 - 4.2 - Partly cloudy 7 - - - -
24/01:15am 12.6 N 17 27 1001.2 - 3.6 - Partly cloudy 10 - - - -
24/01:00am 12.5 N 16 24 1001.6 - 3.6 - Partly cloudy 10 - - - -
24/12:30am 12.4 N 15 21 1002.5 - 3.4 - Partly cloudy 10 - - - -
24/12:00am 12.1 N 14 23 1003.3 - 3.4 - Cloudy 10 - - - -
 
Date/Time
EST
Temp

°C
Wind Pressure Rain
since 9am
mm
Weather Cloud Vis
km
Sea
Height
m
Swell
Dir
 
Speed
knots
Gust
knots
hPa Trend Height
m
Period
s
Dir
23/11:56pm 12.1 N 15 23 1003.4 - 3.4 - Partly cloudy 10 - - - -
23/11:33pm 12.2 N 18 29 1004.2 - 2.8 - Partly cloudy 5 - - - -
23/11:30pm 12.1 N 16 21 1004.2 - 2.8 - Partly cloudy 5 - - - -
23/11:27pm 12.1 N 16 21 1004.2 - 2.6 - Partly cloudy 5 - - - -
23/11:13pm 12.3 N 15 25 1004.1 - 1.8 - Partly cloudy 6 - - - -
23/11:00pm 12.2 N 13 18 1004.5 - 0.8 - Partly cloudy 10 - - - -
23/10:30pm 12.6 N 12 18 1004.9 - 0.2 - Partly cloudy 10 - - - -
23/10:00pm 13.0 N 15 22 1005.6 - 0.0 - Partly cloudy 10 - - - -
23/09:30pm 13.1 N 13 20 1005.9 - 0.0 - Partly cloudy 10 - - - -
23/09:00pm 12.6 N 12 17 1006.2 - 0.0 - Mostly cloudy 10 - - - -
23/08:30pm 12.4 N 12 17 1006.8 - 0.0 - Partly cloudy 10 - - - -
23/08:00pm 12.6 N 9 13 1007.1 - 0.0 - Partly cloudy 10 - - - -
23/07:30pm 12.7 N 10 15 1007.5 - 0.0 - Partly cloudy 10 - - - -
23/07:00pm 12.9 N 8 11 1007.7 - 0.0 - Partly cloudy 10 - - - -
23/06:30pm 12.7 N 11 16 1008.0 - 0.0 - Partly cloudy 10 - - - -
23/06:00pm 13.1 N 10 16 1008.1 - 0.0 - Cloudy 10 - - - -
23/05:30pm 13.3 N 10 16 1008.5 - 0.0 - Partly cloudy 10 - - - -
23/05:00pm 13.7 N 12 16 1008.6 - 0.0 - Partly cloudy 10 - - - -
23/04:30pm 14.0 NNW 17 23 1009.0 - 0.0 - Partly cloudy 10 - - - -
23/04:10pm 14.2 NNW 17 27 1009.1 - 0.0 - Cloudy 10 - - - -
23/04:00pm 14.4 NNW 17 23 1009.1 - 0.0 - Cloudy 10 - - - -
23/03:30pm 14.5 NNW 19 26 1009.2 - 0.0 - Partly cloudy 10 - - - -
23/03:00pm 15.2 NNW 16 22 1009.4 - 0.0 - Partly cloudy 10 - - - -
23/02:55pm 15.5 NNW 15 21 1009.5 - 0.0 - Partly cloudy 10 - - - -
23/02:30pm 15.0 N 8 11 1009.7 - 0.0 - Partly cloudy 10 - - - -
23/02:00pm 15.0 N 10 13 1010.1 - 0.0 - Partly cloudy 10 - - - -
23/01:30pm 14.6 N 11 15 1010.6 - 0.0 - Partly cloudy 10 - - - -
23/01:00pm 14.3 N 13 18 1011.2 - 0.0 - Cloudy 10 - - - -
23/12:30pm 14.6 N 11 16 1011.8 - 0.0 - Partly cloudy 10 - - - -
23/12:00pm 14.8 N 10 15 1012.1 - 0.0 - Mostly cloudy 10 - - - -
23/11:30am 13.5 N 10 13 1012.6 - 0.0 - Cloudy 10 - - - -
23/11:00am 13.7 N 11 16 1013.0 - 0.0 - Partly cloudy 10 - - - -
23/10:30am 13.3 N 9 15 1013.1 - 0.0 - Partly cloudy 10 - - - -
23/10:00am 12.4 N 7 11 1013.3 - 0.0 - Partly cloudy 10 - - - -
23/09:30am 11.4 N 7 10 1013.7 - 0.0 - Partly cloudy 10 - - - -
23/09:00am 10.9 NNE 7 11 1013.9 - 4.0 - Cloudy 10 - - - -
23/08:30am 10.4 NNE 7 10 1014.0 - 4.0 - Partly cloudy 10 - - - -
23/08:00am 9.7 NNE 6 9 1014.0 - 4.0 - Partly cloudy 10 - - - -
23/07:30am 9.5 N 7 10 1014.1 - 4.0 - Partly cloudy 8 - - - -
23/07:00am 8.6 NNE 6 8 1013.7 - 4.0 - Partly cloudy 10 - - - -
23/06:30am 8.4 NNE 6 11 1013.7 - 4.0 - Partly cloudy 10 - - - -
23/06:00am 8.6 NNE 8 9 1013.8 - 3.8 - - 10 - - - -
23/05:30am 9.0 NNE 7 8 1014.2 - 3.8 - Partly cloudy 10 - - - -
23/05:00am 10.2 WNW 7 9 1014.2 - 3.8 - Partly cloudy 10 - - - -
23/04:30am 9.6 NE 5 7 1014.1 - 3.8 - Partly cloudy 10 - - - -
23/04:00am 9.6 NNE 2 5 1014.1 - 3.8 - Partly cloudy 10 - - - -
23/03:30am 9.6 NNW 6 9 1014.2 - 3.8 - Partly cloudy 10 - - - -
23/03:00am 9.7 NNE 6 9 1014.0 - 3.8 - Cloudy 10 - - - -
23/02:30am 9.5 ENE 4 6 1014.2 - 3.6 - Partly cloudy 10 - - - -
23/02:00am 10.3 NE 4 5 1014.5 - 3.6 - Partly cloudy 10 - - - -
23/01:44am 10.9 NNW 4 6 1014.5 - 3.6 - Partly cloudy 10 - - - -
23/01:30am 10.5 NNE 4 5 1014.6 - 3.6 - Partly cloudy 2 - - - -
23/01:17am 10.7 E 4 6 1014.7 - 2.0 - Partly cloudy 5 - - - -
23/01:00am 10.8 SE 3 6 1014.6 - 1.2 - Partly cloudy 10 - - - -
23/12:30am 11.5 WSW 7 9 1014.6 - 1.2 - Partly cloudy 10 - - - -
23/12:00am 11.4 W 7 9 1014.6 - 1.2 - Cloudy 10 - - - -
 
Date/Time
EST
Temp

°C
Wind Pressure Rain
since 9am
mm
Weather Cloud Vis
km
Sea
Height
m
Swell
Dir
 
Speed
knots
Gust
knots
hPa Trend Height
m
Period
s
Dir
22/11:30pm 11.2 N 4 6 1014.7 - 0.8 - Partly cloudy 10 - - - -
22/11:00pm 12.3 W 7 11 1014.8 - 0.8 - Partly cloudy 10 - - - -
22/10:30pm 12.2 WNW 7 9 1014.8 - 0.8 - Partly cloudy 10 - - - -
22/10:00pm 11.9 W 8 11 1014.8 - 0.8 - Partly cloudy 10 - - - -
22/09:30pm 11.2 WSW 8 11 1014.8 - 0.8 - Partly cloudy 10 - - - -
22/09:00pm 11.4 WSW 9 15 1014.6 - 0.8 - Mostly clear 10 - - - -
22/08:30pm 11.5 W 8 13 1014.3 - 0.8 - Partly cloudy 10 - - - -
22/08:00pm 12.1 W 8 11 1014.1 - 0.6 - Partly cloudy 10 - - - -
22/07:30pm 12.3 W 9 13 1013.9 - 0.6 - Partly cloudy 10 - - - -
22/07:00pm 12.1 W 11 14 1013.6 - 0.6 - Partly cloudy 10 - - - -
22/06:30pm 12.5 WNW 12 18 1013.2 - 0.6 - Partly cloudy 10 - - - -
22/06:00pm 12.6 WNW 13 19 1012.8 - 0.6 - Cloudy 10 - - - -
22/05:30pm 11.9 NW 10 15 1012.6 - 0.6 - Partly cloudy 10 - - - -
22/05:25pm 11.8 WNW 12 18 1012.6 - 0.6 - Partly cloudy 10 - - - -
22/05:05pm 12.2 WNW 16 26 1012.6 - 0.0 - Partly cloudy 5 - - - -
22/05:04pm 12.3 WNW 15 26 1012.6 - 0.0 - Partly cloudy 6 - - - -
22/05:00pm 13.6 WNW 12 21 1012.4 - 0.0 - Partly cloudy 10 - - - -
22/04:30pm 13.9 WNW 14 18 1012.1 - 0.0 - Partly cloudy 10 - - - -
22/04:00pm 14.4 WNW 15 20 1012.0 - 0.0 - Partly cloudy 10 - - - -
22/03:30pm 14.2 WNW 14 18 1012.1 - 0.0 - Partly cloudy 10 - - - -
22/03:00pm 15.6 WNW 14 18 1011.9 - 0.0 - Cloudy 10 - - - -
22/02:30pm 15.4 WNW 12 17 1011.7 - 0.0 - - 10 - - - -
22/02:00pm 15.3 WNW 14 19 1011.6 - 0.0 - Partly cloudy 10 - - - -
22/01:30pm 16.0 WNW 14 20 1011.5 - 0.0 - Partly cloudy 10 - - - -
22/01:00pm 15.1 W 15 20 1011.5 - 0.0 - Partly cloudy 10 - - - -
22/12:30pm 15.0 WNW 11 16 1011.5 - 0.0 - Partly cloudy 10 - - - -
22/12:00pm 14.3 W 12 17 1011.5 - 0.0 - Cloudy 10 - - - -
22/11:30am 13.8 W 12 17 1011.3 - 0.0 - Partly cloudy 10 - - - -
22/11:00am 13.4 W 11 15 1011.0 - 0.0 - Cloudy 10 - - - -
22/10:30am 13.2 W 13 18 1010.7 - 0.0 - Partly cloudy 10 - - - -
22/10:00am 12.8 WSW 13 18 1010.4 - 0.0 - Partly cloudy 10 - - - -
22/09:30am 12.5 WSW 14 19 1010.0 - 0.0 - Partly cloudy 10 - - - -
22/09:13am 12.3 WSW 14 19 1009.7 - 0.0 - Partly cloudy 10 - - - -
22/09:11am 12.4 WSW 14 19 1009.7 - 0.0 - Partly cloudy 10 - - - -
22/09:00am 12.2 WSW 12 18 1009.5 - 5.6 - Cloudy 5 - - - -
22/08:37am 12.2 W 15 21 1009.1 - 5.4 - Partly cloudy 5 - - - -
22/08:30am 12.4 WSW 16 22 1009.0 - 5.4 - Partly cloudy 10 - - - -
22/08:18am 12.8 W 17 24 1008.7 - 5.4 - Partly cloudy 5 - - - -
22/08:00am 14.1 NW 16 22 1008.1 - 5.2 - Partly cloudy 10 - - - -
22/07:30am 14.0 NW 15 20 1007.6 - 5.2 - Partly cloudy 10 - - - -
22/07:00am 14.0 NW 15 19 1007.0 - 5.2 - Partly cloudy 10 - - - -
22/06:30am 14.7 NW 12 17 1006.7 - 5.2 - Partly cloudy 10 - - - -
22/06:00am 14.7 NW 12 15 1006.5 - 5.2 - Cloudy 10 - - - -
22/05:30am 14.7 WNW 13 18 1006.5 - 5.2 - Partly cloudy 10 - - - -
22/05:00am 14.9 WNW 14 19 1006.1 - 5.2 - Partly cloudy 10 - - - -
22/04:30am 15.2 WNW 15 19 1006.0 - 5.2 - Partly cloudy 9 - - - -
22/04:00am 15.4 NW 16 20 1005.6 - 5.2 - Partly cloudy 8 - - - -
22/03:30am 15.5 NW 16 21 1005.2 - 5.2 - Partly cloudy 6 - - - -
22/03:14am 15.9 NW 17 25 1005.1 - 5.2 - Partly cloudy 5 - - - -
22/03:00am 16.0 NW 18 24 1004.9 - 5.2 - Cloudy 5 - - - -
22/02:30am 16.3 NNW 16 23 1004.8 - 5.0 - Partly cloudy 6 - - - -
22/02:19am 16.3 NNW 16 22 1004.8 - 5.0 - Partly cloudy 5 - - - -
22/02:17am 16.3 NNW 16 21 1004.8 - 5.0 - Partly cloudy 5 - - - -

Other Formats:

Comma delimited format used in spreadsheet applications
http://www.bom.gov.au/fwo/IDT60701/IDT60701.94956.axf

JavaScript Object Notation format (JSON) in row-major order
http://www.bom.gov.au/fwo/IDT60701/IDT60701.94956.json